createdAt,value
2022-09-10T00:04:01.798Z,1.55
2022-09-10T00:14:05.872Z,3.38
2022-09-10T00:24:07.195Z,3.17
2022-09-10T00:34:09.054Z,4.53
2022-09-10T00:44:32.641Z,5.30
2022-09-10T00:54:36.307Z,3.40
2022-09-10T01:04:38.297Z,2.58
2022-09-10T01:14:48.826Z,3.10
2022-09-10T01:24:52.631Z,3.22
2022-09-10T01:35:14.389Z,1.80
2022-09-10T01:45:15.762Z,2.92
2022-09-10T01:55:22.297Z,5.38
2022-09-10T02:05:24.151Z,2.63
2022-09-10T02:15:26.289Z,4.82
2022-09-10T02:25:28.356Z,1.98
2022-09-10T02:35:31.051Z,3.20
2022-09-10T02:45:32.405Z,2.92
2022-09-10T02:55:33.644Z,4.10
2022-09-10T03:05:38.236Z,4.75
2022-09-10T03:15:39.638Z,0.90
2022-09-10T03:25:40.963Z,3.70
2022-09-10T03:35:42.129Z,9.50
2022-09-10T03:45:43.962Z,5.07
2022-09-10T03:55:45.411Z,1.90
2022-09-10T04:05:46.685Z,5.78
2022-09-10T04:15:49.089Z,2.17
2022-09-10T04:25:50.630Z,2.17
2022-09-10T04:35:51.786Z,0.65
2022-09-10T04:45:54.346Z,6.15
2022-09-10T04:55:55.699Z,11.88
2022-09-10T05:05:56.866Z,1.83
2022-09-10T05:15:58.885Z,4.53
2022-09-10T05:26:00.058Z,4.70
2022-09-10T05:36:01.461Z,2.45
2022-09-10T05:46:03.255Z,6.32
2022-09-10T05:56:05.752Z,2.35
2022-09-10T06:06:07.222Z,1.95
2022-09-10T06:16:08.591Z,0.98
2022-09-10T06:26:10.750Z,5.90
2022-09-10T06:36:12.464Z,3.15
2022-09-10T06:46:56.892Z,1.92
2022-09-10T06:56:38.818Z,0.75
2022-09-10T07:06:40.035Z,1.23
2022-09-10T07:16:45.532Z,5.13
2022-09-10T07:26:47.023Z,7.32
2022-09-10T07:36:48.322Z,2.53
2022-09-10T07:46:49.607Z,5.28
2022-09-10T07:56:50.877Z,1.73
2022-09-10T08:06:52.071Z,7.82
2022-09-10T08:16:53.462Z,2.22
2022-09-10T08:26:54.719Z,3.80
2022-09-10T08:36:57.240Z,1.58
2022-09-10T08:47:04.310Z,2.63
2022-09-10T08:57:06.530Z,4.65
2022-09-10T09:07:15.205Z,2.75
2022-09-10T09:17:16.680Z,5.88
2022-09-10T09:27:18.172Z,3.92
2022-09-10T09:37:21.366Z,5.90
2022-09-10T09:47:23.140Z,4.18
2022-09-10T09:57:24.324Z,3.95
2022-09-10T10:07:26.697Z,5.47
2022-09-10T10:17:32.390Z,2.60
2022-09-10T10:27:37.355Z,2.75
2022-09-10T10:38:01.596Z,5.18
2022-09-10T10:48:12.306Z,5.30
2022-09-10T10:58:17.363Z,2.97
2022-09-10T11:08:21.044Z,5.93
2022-09-10T11:18:30.749Z,4.35
2022-09-10T11:28:36.391Z,5.57
2022-09-10T11:38:43.335Z,4.85
2022-09-10T11:48:46.231Z,3.65
2022-09-10T11:58:47.406Z,3.55
2022-09-10T12:08:59.328Z,8.07
2022-09-10T12:19:01.332Z,3.67
2022-09-10T12:29:02.751Z,7.45
2022-09-10T12:39:19.967Z,3.95
2022-09-10T12:49:21.272Z,6.75
2022-09-10T12:59:27.062Z,11.27
2022-09-10T13:09:29.629Z,11.05
2022-09-10T13:19:30.763Z,7.57
2022-09-10T13:29:33.156Z,10.93
2022-09-10T13:39:47.962Z,7.50
2022-09-10T13:50:03.708Z,8.13
2022-09-10T14:00:17.321Z,6.03
2022-09-10T14:10:18.602Z,4.70
2022-09-10T14:20:23.376Z,9.93
2022-09-10T14:30:25.841Z,9.65
2022-09-10T14:40:27.146Z,10.30
2022-09-10T14:50:32.097Z,9.38
2022-09-10T15:00:33.269Z,11.02
2022-09-10T15:10:34.602Z,11.18
2022-09-10T15:20:35.763Z,10.85
2022-09-10T15:30:37.015Z,16.70
2022-09-10T15:40:38.732Z,8.55
2022-09-10T15:50:41.625Z,10.52
2022-09-10T16:00:42.792Z,11.75
2022-09-10T16:10:44.048Z,8.13
2022-09-10T16:20:45.233Z,6.22
2022-09-10T16:30:46.499Z,7.93
2022-09-10T16:40:47.805Z,10.65
2022-09-10T16:50:49.039Z,6.13
2022-09-10T17:00:50.959Z,8.45
2022-09-10T17:10:52.260Z,2.47
2022-09-10T17:20:53.509Z,7.15
2022-09-10T17:30:56.072Z,6.63
2022-09-10T17:40:58.108Z,6.35
2022-09-10T17:50:59.987Z,5.97
2022-09-10T18:01:02.022Z,8.45
2022-09-10T18:11:05.680Z,6.55
2022-09-10T18:21:31.151Z,9.50
2022-09-10T18:31:33.574Z,10.00
2022-09-10T18:41:38.108Z,14.55
2022-09-10T18:51:42.071Z,12.82
2022-09-10T19:01:43.651Z,11.48
2022-09-10T19:11:45.482Z,20.80
2022-09-10T19:21:47.371Z,11.13
2022-09-10T19:31:49.451Z,13.25
2022-09-10T19:41:50.659Z,10.70
2022-09-10T19:51:51.866Z,12.85
2022-09-10T20:01:53.308Z,18.23
2022-09-10T20:11:54.691Z,14.02
2022-09-10T20:21:55.892Z,14.80
2022-09-10T20:31:57.067Z,13.80
2022-09-10T20:41:58.482Z,14.85
2022-09-10T20:51:59.656Z,20.67
2022-09-10T21:02:00.990Z,19.80
2022-09-10T21:12:02.866Z,20.02
2022-09-10T21:22:04.159Z,14.85
2022-09-10T21:32:05.445Z,26.70
2022-09-10T21:42:06.654Z,22.75
2022-09-10T21:52:08.131Z,27.38
2022-09-10T22:02:10.014Z,17.95
2022-09-10T22:12:11.277Z,23.23
2022-09-10T22:22:12.428Z,22.67
2022-09-10T22:32:13.591Z,25.45
2022-09-10T22:42:15.065Z,27.48
2022-09-10T22:52:16.222Z,25.60
2022-09-10T23:02:17.417Z,18.60
2022-09-10T23:12:22.420Z,22.48
2022-09-10T23:22:23.661Z,21.73
2022-09-10T23:32:25.218Z,26.25
2022-09-10T23:42:26.401Z,22.30
2022-09-10T23:52:27.570Z,32.40
